createdAt,value
2023-03-27T00:01:35.892Z,14.47
2023-03-27T00:04:03.812Z,14.20
2023-03-27T00:06:34.659Z,14.30
2023-03-27T00:09:03.857Z,14.97
2023-03-27T00:11:31.870Z,14.63
2023-03-27T00:13:59.964Z,14.83
2023-03-27T00:16:27.733Z,15.40
2023-03-27T00:18:55.556Z,14.10
2023-03-27T00:21:23.236Z,14.77
2023-03-27T00:23:51.425Z,14.90
2023-03-27T00:26:19.044Z,14.03
2023-03-27T00:28:47.640Z,14.00
2023-03-27T00:31:16.127Z,14.67
2023-03-27T00:33:44.331Z,14.13
2023-03-27T00:36:11.353Z,14.47
2023-03-27T00:38:39.840Z,14.17
2023-03-27T00:41:09.190Z,13.57
2023-03-27T00:43:36.800Z,13.07
2023-03-27T00:46:14.651Z,14.20
2023-03-27T00:48:41.840Z,12.87
2023-03-27T00:51:09.443Z,12.30
2023-03-27T00:53:37.313Z,12.67
2023-03-27T00:56:05.226Z,12.07
2023-03-27T00:58:34.410Z,12.20
2023-03-27T01:01:02.585Z,11.70
2023-03-27T01:03:53.793Z,11.07
2023-03-27T01:06:21.555Z,11.93
2023-03-27T01:08:48.786Z,12.30
2023-03-27T01:11:31.206Z,11.97
2023-03-27T01:14:11.040Z,11.77
2023-03-27T01:17:07.793Z,11.90
2023-03-27T01:20:05.881Z,10.97
2023-03-27T01:22:39.378Z,11.90
2023-03-27T01:25:24.516Z,11.37
2023-03-27T01:28:18.261Z,11.70
2023-03-27T01:30:51.210Z,11.57
2023-03-27T01:33:31.034Z,13.80
2023-03-27T01:36:46.520Z,13.63
2023-03-27T01:39:28.650Z,12.13
2023-03-27T01:42:06.996Z,13.13
2023-03-27T01:44:45.777Z,11.93
2023-03-27T01:47:32.655Z,12.57
2023-03-27T01:50:08.352Z,12.07
2023-03-27T01:52:40.914Z,12.83
2023-03-27T01:55:11.664Z,12.67
2023-03-27T01:57:50.392Z,12.00
2023-03-27T02:00:22.036Z,12.00
2023-03-27T02:03:16.503Z,11.30
2023-03-27T02:05:51.031Z,10.17
2023-03-27T02:08:21.350Z,10.80
2023-03-27T02:10:50.571Z,10.83
2023-03-27T02:13:21.494Z,11.33
2023-03-27T02:15:48.907Z,10.63
2023-03-27T02:18:23.306Z,10.87
2023-03-27T02:20:53.782Z,11.47
2023-03-27T02:23:23.097Z,11.27
2023-03-27T02:25:50.859Z,11.47
2023-03-27T02:28:36.716Z,11.00
2023-03-27T02:31:35.352Z,10.40
2023-03-27T02:34:27.099Z,10.63
2023-03-27T02:37:36.014Z,10.83
2023-03-27T02:40:14.980Z,11.00
2023-03-27T02:42:51.839Z,11.27
2023-03-27T02:45:26.546Z,10.73
2023-03-27T02:48:06.044Z,10.40
2023-03-27T02:50:38.386Z,10.33
2023-03-27T02:53:05.933Z,11.17
2023-03-27T02:55:36.321Z,11.43
2023-03-27T02:58:08.582Z,12.47
2023-03-27T03:00:39.731Z,12.37
2023-03-27T03:03:15.351Z,12.73
2023-03-27T03:05:44.108Z,11.70
2023-03-27T03:08:11.790Z,11.50
2023-03-27T03:10:45.146Z,11.50
2023-03-27T03:13:13.410Z,12.47
2023-03-27T03:15:41.248Z,13.63
2023-03-27T03:18:09.244Z,12.97
2023-03-27T03:20:36.956Z,13.20
2023-03-27T03:23:05.075Z,12.07
2023-03-27T03:25:33.202Z,15.20
2023-03-27T03:28:01.319Z,15.30
2023-03-27T03:30:31.866Z,17.23
2023-03-27T03:33:00.307Z,16.50
2023-03-27T03:35:28.278Z,16.70
2023-03-27T03:37:58.891Z,18.43
2023-03-27T03:40:26.837Z,18.73
2023-03-27T03:42:54.454Z,19.97
2023-03-27T03:45:22.493Z,20.27
2023-03-27T03:47:53.119Z,19.73
2023-03-27T03:50:21.331Z,21.03
2023-03-27T03:52:49.293Z,21.20
2023-03-27T03:55:17.720Z,20.77
2023-03-27T03:57:50.239Z,21.17
2023-03-27T04:00:18.732Z,21.60
2023-03-27T04:02:46.472Z,21.50
2023-03-27T04:05:14.476Z,19.80
2023-03-27T04:07:42.463Z,21.43
2023-03-27T04:10:13.585Z,22.07
2023-03-27T04:12:41.264Z,21.73
2023-03-27T04:15:09.360Z,21.80
2023-03-27T04:17:38.434Z,20.53
2023-03-27T04:20:08.925Z,20.90
2023-03-27T04:22:38.226Z,20.90
2023-03-27T04:25:08.365Z,20.60
2023-03-27T04:27:36.370Z,20.73
2023-03-27T04:30:04.857Z,21.30
2023-03-27T04:32:32.986Z,21.53
2023-03-27T04:35:00.972Z,20.77
2023-03-27T04:37:29.046Z,20.03
2023-03-27T04:39:58.405Z,20.57
2023-03-27T04:42:27.185Z,20.63
2023-03-27T04:44:55.567Z,19.17
2023-03-27T04:47:23.928Z,18.53
2023-03-27T04:49:52.118Z,19.30
2023-03-27T04:52:20.807Z,20.23
2023-03-27T04:54:48.823Z,19.27
2023-03-27T04:57:19.202Z,19.20
2023-03-27T04:59:47.208Z,19.97
2023-03-27T05:02:16.239Z,17.53
2023-03-27T05:04:44.734Z,18.40
2023-03-27T05:07:12.385Z,19.10
2023-03-27T05:09:40.142Z,18.90
2023-03-27T05:12:08.948Z,17.23
2023-03-27T05:14:36.817Z,17.07
2023-03-27T05:17:05.621Z,17.80
2023-03-27T05:19:34.201Z,17.57
2023-03-27T05:22:02.704Z,18.53
2023-03-27T05:24:30.589Z,18.83
2023-03-27T05:26:58.720Z,19.80
2023-03-27T05:29:26.887Z,18.87
2023-03-27T05:31:54.743Z,18.23
2023-03-27T05:34:22.791Z,20.33
2023-03-27T05:36:51.288Z,18.80
2023-03-27T05:39:19.215Z,19.47
2023-03-27T05:41:47.584Z,19.23
2023-03-27T05:44:16.129Z,18.77
2023-03-27T05:46:44.068Z,19.63
2023-03-27T05:49:12.282Z,17.40
2023-03-27T05:51:40.422Z,19.77
2023-03-27T05:54:15.155Z,19.60
2023-03-27T05:56:44.065Z,20.47
2023-03-27T05:59:11.840Z,21.37
2023-03-27T06:01:42.862Z,21.17
2023-03-27T06:04:11.182Z,20.23
2023-03-27T06:06:39.374Z,22.07
2023-03-27T06:09:07.811Z,21.30
2023-03-27T06:11:35.500Z,20.90
2023-03-27T06:14:02.944Z,20.63
2023-03-27T06:16:30.782Z,20.17
2023-03-27T06:18:59.176Z,19.17
2023-03-27T06:21:27.544Z,20.87
2023-03-27T06:23:56.409Z,18.83
2023-03-27T06:26:24.896Z,19.67
2023-03-27T06:28:54.324Z,19.50
2023-03-27T06:31:22.159Z,19.27
2023-03-27T06:33:50.291Z,20.87
2023-03-27T06:36:18.197Z,19.73
2023-03-27T06:38:46.475Z,19.33
2023-03-27T06:41:15.549Z,20.27
2023-03-27T06:43:43.622Z,18.13
2023-03-27T06:46:11.929Z,19.80
2023-03-27T06:48:40.000Z,19.13
2023-03-27T06:51:08.075Z,18.50
2023-03-27T06:53:38.106Z,19.73
2023-03-27T06:56:09.271Z,18.60
2023-03-27T06:58:37.424Z,20.70
2023-03-27T07:01:06.426Z,20.13
2023-03-27T07:03:34.543Z,18.73
2023-03-27T07:06:02.320Z,17.73
2023-03-27T07:08:29.979Z,17.57
2023-03-27T07:11:10.588Z,17.77
2023-03-27T07:13:41.245Z,17.50
2023-03-27T07:16:14.167Z,16.10
2023-03-27T07:18:42.219Z,16.57
2023-03-27T07:21:10.263Z,16.87
2023-03-27T07:23:38.631Z,15.87
2023-03-27T07:26:08.277Z,16.77
2023-03-27T07:28:38.766Z,16.53
2023-03-27T07:31:25.995Z,16.50
2023-03-27T07:33:58.723Z,15.70
2023-03-27T07:36:26.612Z,16.53
2023-03-27T07:38:54.525Z,16.23
2023-03-27T07:41:22.914Z,15.87
2023-03-27T07:43:50.659Z,15.90
2023-03-27T07:46:19.046Z,16.80
2023-03-27T07:48:47.154Z,16.60
2023-03-27T07:51:15.451Z,16.47
2023-03-27T07:53:43.746Z,16.83
2023-03-27T07:56:11.675Z,17.50
2023-03-27T07:58:39.770Z,16.93
2023-03-27T08:01:07.865Z,16.00
2023-03-27T08:03:36.091Z,20.77
2023-03-27T08:06:03.441Z,22.13
2023-03-27T08:08:31.380Z,20.83
2023-03-27T08:10:59.803Z,18.00
2023-03-27T08:13:27.858Z,15.30
2023-03-27T08:16:07.986Z,13.27
2023-03-27T08:18:36.546Z,12.40
2023-03-27T08:21:04.548Z,12.80
2023-03-27T08:23:33.895Z,12.30
2023-03-27T08:26:01.713Z,12.87
2023-03-27T08:28:32.731Z,12.57
2023-03-27T08:31:02.930Z,12.27
2023-03-27T08:33:31.043Z,11.97
2023-03-27T08:35:59.514Z,11.37
2023-03-27T08:38:28.709Z,11.17
2023-03-27T08:40:59.208Z,10.67
2023-03-27T08:43:28.950Z,10.17
2023-03-27T08:45:59.208Z,9.43
2023-03-27T08:48:35.364Z,8.33
2023-03-27T08:51:05.608Z,7.75
2023-03-27T08:53:47.555Z,8.77
2023-03-27T08:56:15.423Z,5.50
2023-03-27T08:58:43.587Z,3.80
2023-03-27T09:01:55.382Z,3.13
2023-03-27T09:04:28.181Z,1.93
2023-03-27T09:07:07.341Z,1.70
2023-03-27T09:10:00.628Z,1.90
2023-03-27T09:13:06.781Z,1.80
2023-03-27T09:15:37.733Z,1.27
2023-03-27T09:18:13.593Z,1.33
2023-03-27T09:20:46.431Z,1.20
2023-03-27T09:23:43.063Z,0.70
2023-03-27T09:26:23.355Z,0.90
2023-03-27T09:28:56.249Z,0.40
2023-03-27T09:31:33.457Z,0.33
2023-03-27T09:34:03.988Z,0.63
2023-03-27T09:36:32.368Z,0.50
2023-03-27T09:39:05.848Z,0.80
2023-03-27T09:41:44.974Z,0.60
2023-03-27T09:44:21.114Z,0.60
2023-03-27T09:46:50.132Z,0.70
2023-03-27T09:49:25.522Z,0.97
2023-03-27T09:51:53.826Z,0.90
2023-03-27T09:54:22.453Z,0.90
2023-03-27T09:57:13.706Z,0.60
2023-03-27T09:59:58.579Z,0.83
2023-03-27T10:02:30.121Z,1.20
2023-03-27T10:04:59.311Z,1.10
2023-03-27T10:07:27.464Z,1.00
2023-03-27T10:10:15.869Z,1.00
2023-03-27T10:12:43.491Z,0.60
2023-03-27T10:15:49.240Z,0.77
2023-03-27T10:18:32.506Z,0.80
2023-03-27T10:21:01.616Z,0.50
2023-03-27T10:23:30.536Z,0.70
2023-03-27T10:26:04.441Z,0.50
2023-03-27T10:28:35.341Z,0.50
2023-03-27T10:31:31.831Z,0.33
2023-03-27T10:34:02.131Z,0.47
2023-03-27T10:36:33.688Z,0.60
2023-03-27T10:39:09.046Z,0.63
2023-03-27T10:41:37.211Z,0.40
2023-03-27T10:44:13.022Z,0.40
2023-03-27T10:46:41.360Z,0.70
2023-03-27T10:49:25.647Z,0.50
2023-03-27T10:52:03.206Z,0.50
2023-03-27T10:54:51.773Z,0.70
2023-03-27T10:57:32.000Z,0.60
2023-03-27T11:00:19.798Z,1.27
2023-03-27T11:02:54.408Z,1.00
2023-03-27T11:05:24.198Z,1.20
2023-03-27T11:07:55.918Z,1.30
2023-03-27T11:10:58.385Z,1.33
2023-03-27T11:13:32.423Z,1.30
2023-03-27T11:16:21.285Z,1.42
2023-03-27T11:19:10.804Z,1.20
2023-03-27T11:21:44.667Z,1.10
2023-03-27T11:24:28.762Z,1.40
2023-03-27T11:27:12.274Z,0.90
2023-03-27T11:29:52.744Z,1.48
2023-03-27T11:32:33.708Z,1.05
2023-03-27T11:35:24.385Z,0.90
2023-03-27T11:38:03.529Z,0.75
2023-03-27T11:40:36.438Z,0.80
2023-03-27T11:43:04.390Z,0.43
2023-03-27T11:45:38.178Z,0.70
2023-03-27T11:48:30.115Z,0.60
2023-03-27T11:51:03.490Z,0.28
2023-03-27T11:53:33.481Z,0.30
2023-03-27T11:56:09.138Z,0.30
2023-03-27T11:59:12.983Z,0.43
2023-03-27T12:02:10.049Z,0.52
2023-03-27T12:04:51.541Z,0.20
2023-03-27T12:07:36.092Z,0.10
2023-03-27T12:10:28.519Z,0.10
2023-03-27T12:13:17.624Z,0.40
2023-03-27T12:16:03.012Z,0.10
2023-03-27T12:19:00.562Z,0.10
2023-03-27T12:21:48.803Z,0.13
2023-03-27T12:24:53.407Z,0.10
2023-03-27T12:28:01.433Z,0.20
2023-03-27T12:30:40.149Z,0.10
2023-03-27T12:33:07.128Z,0.13
2023-03-27T12:35:38.621Z,0.10
2023-03-27T12:38:32.254Z,0.20
2023-03-27T12:41:16.074Z,0.10
2023-03-27T12:43:46.846Z,0.20
2023-03-27T12:46:29.094Z,0.20
2023-03-27T12:49:08.099Z,0.20
2023-03-27T12:51:53.743Z,0.10
2023-03-27T12:54:30.537Z,0.10
2023-03-27T12:57:35.923Z,0.10
2023-03-27T13:00:10.434Z,0.10
2023-03-27T13:03:09.761Z,0.30
2023-03-27T13:05:39.939Z,0.20
2023-03-27T13:08:30.145Z,0.10
2023-03-27T13:11:19.473Z,0.20
2023-03-27T13:13:46.584Z,0.30
2023-03-27T13:16:45.720Z,0.20
2023-03-27T13:19:36.775Z,0.20
2023-03-27T13:22:28.446Z,0.17
2023-03-27T13:25:11.396Z,0.20
2023-03-27T13:27:50.154Z,0.10
2023-03-27T13:30:41.426Z,0.15
2023-03-27T13:33:12.988Z,0.13
2023-03-27T13:35:41.959Z,2.17
2023-03-27T13:38:10.680Z,4.60
2023-03-27T13:40:39.888Z,0.30
2023-03-27T13:43:15.248Z,0.20
2023-03-27T13:45:47.180Z,0.20
2023-03-27T13:48:38.911Z,0.43
2023-03-27T13:51:31.123Z,0.10
2023-03-27T13:54:19.977Z,0.00
2023-03-27T13:56:55.465Z,0.22
2023-03-27T14:00:03.335Z,0.98
2023-03-27T14:02:36.509Z,0.20
2023-03-27T14:05:35.678Z,0.10
2023-03-27T14:08:45.017Z,0.40
2023-03-27T14:11:37.959Z,0.75
2023-03-27T14:14:23.453Z,0.60
2023-03-27T14:17:28.096Z,0.53
2023-03-27T14:20:00.907Z,0.80
2023-03-27T14:22:54.027Z,0.70
2023-03-27T14:25:49.814Z,0.50
2023-03-27T14:28:53.960Z,0.50
2023-03-27T14:31:21.321Z,0.43
2023-03-27T14:34:01.893Z,7.60
2023-03-27T14:36:30.337Z,12.27
2023-03-27T14:39:16.621Z,8.50
2023-03-27T14:41:53.007Z,4.25
2023-03-27T14:44:20.729Z,2.20
2023-03-27T14:46:49.058Z,1.30
2023-03-27T14:49:24.776Z,3.63
2023-03-27T14:51:53.725Z,2.45
2023-03-27T14:54:27.182Z,1.97
2023-03-27T14:57:00.474Z,1.17
2023-03-27T14:59:30.600Z,0.73
2023-03-27T15:01:58.546Z,1.40
2023-03-27T15:04:27.147Z,1.47
2023-03-27T15:06:56.912Z,0.80
2023-03-27T15:09:24.971Z,1.83
2023-03-27T15:11:56.192Z,1.03
2023-03-27T15:14:30.375Z,1.30
2023-03-27T15:17:15.663Z,0.40
2023-03-27T15:19:53.849Z,0.40
2023-03-27T15:22:24.059Z,0.40
2023-03-27T15:24:57.304Z,0.30
2023-03-27T15:27:31.805Z,0.50
2023-03-27T15:30:02.365Z,0.57
2023-03-27T15:32:34.146Z,0.40
2023-03-27T15:35:03.482Z,0.50
2023-03-27T15:37:31.882Z,0.20
2023-03-27T15:40:09.513Z,0.47
2023-03-27T15:42:48.184Z,0.30
2023-03-27T15:45:23.125Z,0.50
2023-03-27T15:48:06.859Z,1.03
2023-03-27T15:50:34.950Z,0.60
2023-03-27T15:53:03.309Z,0.70
2023-03-27T15:55:44.649Z,0.50
2023-03-27T15:58:20.518Z,0.67
2023-03-27T16:00:48.229Z,0.47
2023-03-27T16:03:25.524Z,0.63
2023-03-27T16:05:56.757Z,0.40
2023-03-27T16:08:34.946Z,0.50
2023-03-27T16:11:02.310Z,0.50
2023-03-27T16:13:54.928Z,0.60
2023-03-27T16:16:27.233Z,0.60
2023-03-27T16:18:55.377Z,0.47
2023-03-27T16:21:23.852Z,0.63
2023-03-27T16:23:51.920Z,0.80
2023-03-27T16:26:23.135Z,0.70
2023-03-27T16:28:50.777Z,0.93
2023-03-27T16:31:20.043Z,1.00
2023-03-27T16:33:48.203Z,1.20
2023-03-27T16:36:16.225Z,0.77
2023-03-27T16:38:44.019Z,0.50
2023-03-27T16:41:15.968Z,0.90
2023-03-27T16:43:44.382Z,0.60
2023-03-27T16:46:29.776Z,1.30
2023-03-27T16:49:17.007Z,1.60
2023-03-27T16:52:04.475Z,1.47
2023-03-27T16:54:33.721Z,0.80
2023-03-27T16:57:01.119Z,0.80
2023-03-27T16:59:29.218Z,0.70
2023-03-27T17:01:57.383Z,0.40
2023-03-27T17:04:25.685Z,0.50
2023-03-27T17:06:53.548Z,0.63
2023-03-27T17:09:22.738Z,0.40
2023-03-27T17:11:53.947Z,0.30
2023-03-27T17:14:22.103Z,1.30
2023-03-27T17:16:51.265Z,1.10
2023-03-27T17:19:18.852Z,1.20
2023-03-27T17:21:47.205Z,0.90
2023-03-27T17:24:14.912Z,1.20
2023-03-27T17:26:43.458Z,15.23
2023-03-27T17:29:11.498Z,27.37
2023-03-27T17:31:39.477Z,15.20
2023-03-27T17:34:07.870Z,2.90
2023-03-27T17:36:44.936Z,1.40
2023-03-27T17:39:15.504Z,1.40
2023-03-27T17:41:44.110Z,1.40
2023-03-27T17:44:13.267Z,1.13
2023-03-27T17:46:41.200Z,7.07
2023-03-27T17:49:09.005Z,2.20
2023-03-27T17:51:37.205Z,0.70
2023-03-27T17:54:05.898Z,5.00
2023-03-27T17:56:33.932Z,1.77
2023-03-27T17:59:02.859Z,0.70
2023-03-27T18:01:34.030Z,0.40
2023-03-27T18:04:01.838Z,0.40
2023-03-27T18:06:30.310Z,0.27
2023-03-27T18:08:58.235Z,0.53
2023-03-27T18:11:26.018Z,0.50
2023-03-27T18:13:54.086Z,0.80
2023-03-27T18:16:23.231Z,0.87
2023-03-27T18:18:52.581Z,0.90
2023-03-27T18:21:20.985Z,0.90
2023-03-27T18:23:49.117Z,0.80
2023-03-27T18:26:16.738Z,0.30
2023-03-27T18:28:47.936Z,0.40
2023-03-27T18:31:17.837Z,0.17
2023-03-27T18:33:46.060Z,0.20
2023-03-27T18:36:14.187Z,0.30
2023-03-27T18:38:42.320Z,0.20
2023-03-27T18:41:10.415Z,0.30
2023-03-27T18:43:38.855Z,0.30
2023-03-27T18:46:08.483Z,0.40
2023-03-27T18:48:36.489Z,0.40
2023-03-27T18:51:07.971Z,0.20
2023-03-27T18:53:35.816Z,0.30
2023-03-27T18:56:03.890Z,0.40
2023-03-27T18:58:32.281Z,0.40
2023-03-27T19:01:00.081Z,0.20
2023-03-27T19:03:30.365Z,0.37
2023-03-27T19:06:00.411Z,0.20
2023-03-27T19:08:28.616Z,0.37
2023-03-27T19:10:57.900Z,0.30
2023-03-27T19:13:25.956Z,0.43
2023-03-27T19:15:54.034Z,0.30
2023-03-27T19:18:22.139Z,0.50
2023-03-27T19:20:50.333Z,0.30
2023-03-27T19:23:18.207Z,0.40
2023-03-27T19:25:49.588Z,0.40
2023-03-27T19:28:17.448Z,0.40
2023-03-27T19:30:48.402Z,0.20
2023-03-27T19:33:15.908Z,0.60
2023-03-27T19:35:44.087Z,0.57
2023-03-27T19:38:11.959Z,0.40
2023-03-27T19:40:39.663Z,0.40
2023-03-27T19:43:07.796Z,0.60
2023-03-27T19:45:36.021Z,0.50
2023-03-27T19:48:04.099Z,0.40
2023-03-27T19:50:31.433Z,0.40
2023-03-27T19:53:08.190Z,0.60
2023-03-27T19:55:36.914Z,0.53
2023-03-27T19:58:04.502Z,0.67
2023-03-27T20:00:32.280Z,0.83
2023-03-27T20:03:00.357Z,0.80
2023-03-27T20:05:29.733Z,0.80
2023-03-27T20:07:57.380Z,0.60
2023-03-27T20:10:27.069Z,1.40
2023-03-27T20:12:54.771Z,1.23
2023-03-27T20:15:22.609Z,0.90
2023-03-27T20:17:53.563Z,0.83
2023-03-27T20:20:21.576Z,0.57
2023-03-27T20:22:57.511Z,0.80
2023-03-27T20:25:25.455Z,0.80
2023-03-27T20:27:53.113Z,0.70
2023-03-27T20:30:21.483Z,0.40
2023-03-27T20:32:49.155Z,0.50
2023-03-27T20:35:24.184Z,0.83
2023-03-27T20:37:57.798Z,0.40
2023-03-27T20:40:26.357Z,0.60
2023-03-27T20:43:03.487Z,0.53
2023-03-27T20:45:31.561Z,0.43
2023-03-27T20:48:05.681Z,0.60
2023-03-27T20:50:35.362Z,0.63
2023-03-27T20:53:04.856Z,0.80
2023-03-27T20:55:41.561Z,0.50
2023-03-27T20:58:20.145Z,0.50
2023-03-27T21:00:48.883Z,0.50
2023-03-27T21:03:16.844Z,0.50
2023-03-27T21:05:44.805Z,0.53
2023-03-27T21:08:12.884Z,0.47
2023-03-27T21:10:40.763Z,0.50
2023-03-27T21:13:08.345Z,0.50
2023-03-27T21:15:36.373Z,0.30
2023-03-27T21:18:05.423Z,0.40
2023-03-27T21:20:35.360Z,0.47
2023-03-27T21:23:03.634Z,0.40
2023-03-27T21:25:31.714Z,0.50
2023-03-27T21:27:59.344Z,0.40
2023-03-27T21:30:46.539Z,0.77
2023-03-27T21:33:16.178Z,0.60
2023-03-27T21:35:45.840Z,0.40
2023-03-27T21:38:14.595Z,0.63
2023-03-27T21:40:41.598Z,0.97
2023-03-27T21:43:09.484Z,0.70
2023-03-27T21:45:40.434Z,0.40
2023-03-27T21:48:10.571Z,0.83
2023-03-27T21:50:39.739Z,0.30
2023-03-27T21:53:08.021Z,0.30
2023-03-27T21:55:35.938Z,0.40
2023-03-27T21:58:04.472Z,0.50
2023-03-27T22:00:32.574Z,0.30
2023-03-27T22:03:01.040Z,0.50
2023-03-27T22:05:29.111Z,0.53
2023-03-27T22:07:57.755Z,0.40
2023-03-27T22:10:25.443Z,0.40
2023-03-27T22:12:53.273Z,0.50
2023-03-27T22:15:21.211Z,0.40
2023-03-27T22:17:49.142Z,0.33
2023-03-27T22:20:17.220Z,0.33
2023-03-27T22:22:45.111Z,0.33
2023-03-27T22:25:13.782Z,0.30
2023-03-27T22:27:42.035Z,0.23
2023-03-27T22:30:12.781Z,0.47
2023-03-27T22:32:43.418Z,0.30
2023-03-27T22:35:11.365Z,0.40
2023-03-27T22:37:39.471Z,0.30
2023-03-27T22:40:10.574Z,0.40
2023-03-27T22:42:38.330Z,0.30
2023-03-27T22:45:06.928Z,0.40
2023-03-27T22:47:36.120Z,0.37
2023-03-27T22:50:06.455Z,0.33
2023-03-27T22:52:34.072Z,0.40
2023-03-27T22:55:01.998Z,0.30
2023-03-27T22:57:30.107Z,0.37
2023-03-27T22:59:58.162Z,0.30
2023-03-27T23:02:26.007Z,0.30
2023-03-27T23:04:54.183Z,0.50
2023-03-27T23:07:21.923Z,0.40
2023-03-27T23:09:50.383Z,0.40
2023-03-27T23:12:18.482Z,0.40
2023-03-27T23:14:46.299Z,0.33
2023-03-27T23:17:14.106Z,0.37
2023-03-27T23:19:41.995Z,0.30
2023-03-27T23:22:10.545Z,0.23
2023-03-27T23:24:39.003Z,0.43
2023-03-27T23:27:08.589Z,0.40
2023-03-27T23:29:36.740Z,0.23
2023-03-27T23:32:05.050Z,0.23
2023-03-27T23:34:33.177Z,0.30
2023-03-27T23:37:00.773Z,0.33
2023-03-27T23:39:28.517Z,0.50
2023-03-27T23:41:57.239Z,0.40
2023-03-27T23:44:25.303Z,0.40
2023-03-27T23:46:56.511Z,0.30
2023-03-27T23:49:24.550Z,0.30
2023-03-27T23:51:53.141Z,0.47
2023-03-27T23:54:22.265Z,0.40
2023-03-27T23:56:50.528Z,0.60
2023-03-27T23:59:18.653Z,0.40
